Time,TemperatureF,DewpointF,PressureIn,WindDirection,WindDirectionDegrees,WindSpeedMPH,WindSpeedGustMPH,Humidity,HourlyPrecipIn,Conditions,Clouds,dailyrainin,SoftwareType,DateUTC
2013-05-14 00:03:00,41.0,31.0,30.13,NNW,342,0.0,3.0,67,0.00,,,0.00,,2013-05-14 04:03:00,
2013-05-14 00:13:00,41.0,31.0,30.13,NNW,342,0.0,3.0,67,0.00,,,0.00,,2013-05-14 04:13:00,
2013-05-14 00:23:00,41.0,32.0,30.13,NNW,342,0.0,1.0,69,0.00,,,0.00,,2013-05-14 04:23:00,
2013-05-14 00:32:00,40.0,31.0,30.13,NNW,342,0.0,1.0,70,0.00,,,0.00,,2013-05-14 04:32:00,
2013-05-14 00:43:00,40.0,31.0,30.13,NNW,342,0.0,1.0,70,0.00,,,0.00,,2013-05-14 04:43:00,
2013-05-14 00:53:00,39.0,30.0,30.13,NNW,342,0.0,0.0,71,0.00,,,0.00,,2013-05-14 04:53:00,
2013-05-14 01:02:00,39.0,31.0,30.12,NNW,342,0.0,1.0,74,0.00,,,0.00,,2013-05-14 05:02:00,
2013-05-14 01:12:00,39.0,31.0,30.12,NNW,342,0.0,1.0,74,0.00,,,0.00,,2013-05-14 05:12:00,
2013-05-14 01:22:00,38.0,31.0,30.13,NNW,342,0.0,2.0,76,0.00,,,0.00,,2013-05-14 05:22:00,
2013-05-14 01:32:00,37.0,30.0,30.12,NNW,342,0.0,2.0,77,0.00,,,0.00,,2013-05-14 05:32:00,
2013-05-14 01:42:00,37.0,31.0,30.13,NNW,342,0.0,0.0,78,0.00,,,0.00,,2013-05-14 05:42:00,
2013-05-14 01:52:00,37.0,31.0,30.13,NNW,342,0.0,0.0,78,0.00,,,0.00,,2013-05-14 05:52:00,
2013-05-14 02:01:00,36.0,30.0,30.13,NNW,342,0.0,1.0,80,0.00,,,0.00,,2013-05-14 06:01:00,
2013-05-14 02:12:00,36.0,30.0,30.13,NNW,342,0.0,1.0,80,0.00,,,0.00,,2013-05-14 06:12:00,
2013-05-14 02:22:00,36.0,31.0,30.13,NNW,342,0.0,1.0,81,0.00,,,0.00,,2013-05-14 06:22:00,
2013-05-14 02:32:00,35.0,30.0,30.13,NNW,342,0.0,2.0,82,0.00,,,0.00,,2013-05-14 06:32:00,
2013-05-14 02:42:00,35.0,30.0,30.14,NNW,342,0.0,2.0,83,0.00,,,0.00,,2013-05-14 06:42:00,
2013-05-14 02:52:00,35.0,30.0,30.14,NNW,342,0.0,2.0,83,0.00,,,0.00,,2013-05-14 06:52:00,
2013-05-14 03:02:00,35.0,31.0,30.15,NNW,342,0.0,0.0,84,0.00,,,0.00,,2013-05-14 07:02:00,
2013-05-14 03:11:00,35.0,31.0,30.15,NNW,342,0.0,0.0,84,0.00,,,0.00,,2013-05-14 07:11:00,
2013-05-14 03:21:00,34.0,30.0,30.15,NNW,342,0.0,0.0,84,0.00,,,0.00,,2013-05-14 07:21:00,
2013-05-14 03:32:00,34.0,30.0,30.14,NNW,342,0.0,0.0,85,0.00,,,0.00,,2013-05-14 07:32:00,
2013-05-14 03:42:00,34.0,30.0,30.14,NNW,342,0.0,1.0,85,0.00,,,0.00,,2013-05-14 07:42:00,
2013-05-14 03:52:00,34.0,30.0,30.14,NNW,342,0.0,1.0,85,0.00,,,0.00,,2013-05-14 07:52:00,
2013-05-14 04:02:00,33.0,29.0,30.15,NNW,342,0.0,0.0,86,0.00,,,0.00,,2013-05-14 08:02:00,
2013-05-14 04:11:00,33.0,29.0,30.15,NNW,342,0.0,0.0,86,0.00,,,0.00,,2013-05-14 08:11:00,
2013-05-14 04:21:00,33.0,29.0,30.16,NNW,342,0.0,0.0,86,0.00,,,0.00,,2013-05-14 08:21:00,
2013-05-14 04:32:00,33.0,29.0,30.14,NNW,342,0.0,0.0,86,0.00,,,0.00,,2013-05-14 08:32:00,
2013-05-14 04:42:00,32.0,28.0,30.16,NNW,342,0.0,0.0,86,0.00,,,0.00,,2013-05-14 08:42:00,
2013-05-14 04:52:00,32.0,28.0,30.16,NNW,342,0.0,0.0,86,0.00,,,0.00,,2013-05-14 08:52:00,
2013-05-14 05:02:00,32.0,29.0,30.16,NNW,342,0.0,0.0,87,0.00,,,0.00,,2013-05-14 09:02:00,
2013-05-14 05:11:00,32.0,29.0,30.16,NNW,342,0.0,0.0,87,0.00,,,0.00,,2013-05-14 09:11:00,
2013-05-14 05:22:00,32.0,29.0,30.16,NNW,342,0.0,0.0,88,0.00,,,0.00,,2013-05-14 09:22:00,
2013-05-14 05:32:00,32.0,29.0,30.17,NNW,342,0.0,0.0,88,0.00,,,0.00,,2013-05-14 09:32:00,
2013-05-14 05:44:00,31.0,28.0,30.17,NNW,342,0.0,0.0,88,0.00,,,0.00,,2013-05-14 09:44:00,
2013-05-14 05:54:00,31.0,28.0,30.17,NNW,342,0.0,0.0,88,0.00,,,0.00,,2013-05-14 09:54:00,
2013-05-14 06:05:00,31.0,28.0,30.18,NNW,342,0.0,0.0,88,0.00,,,0.00,,2013-05-14 10:05:00,
2013-05-14 06:14:00,31.0,28.0,30.18,NNW,342,0.0,0.0,88,0.00,,,0.00,,2013-05-14 10:14:00,
2013-05-14 06:25:00,31.0,28.0,30.18,NNW,342,0.0,0.0,89,0.00,,,0.00,,2013-05-14 10:25:00,
2013-05-14 06:33:00,31.0,28.0,30.19,NNW,342,0.0,0.0,89,0.00,,,0.00,,2013-05-14 10:33:00,
2013-05-14 06:42:00,31.0,28.0,30.19,NNW,342,0.0,0.0,89,0.00,,,0.00,,2013-05-14 10:42:00,
2013-05-14 06:52:00,30.0,27.0,30.19,NNW,342,0.0,0.0,89,0.00,,,0.00,,2013-05-14 10:52:00,
2013-05-14 07:02:00,30.0,27.0,30.19,NNW,342,0.0,0.0,89,0.00,,,0.00,,2013-05-14 11:02:00,
2013-05-14 07:11:00,30.0,27.0,30.19,NNW,342,0.0,0.0,89,0.00,,,0.00,,2013-05-14 11:11:00,
2013-05-14 07:22:00,30.0,27.0,30.20,NNW,342,0.0,0.0,90,0.00,,,0.00,,2013-05-14 11:22:00,
2013-05-14 07:32:00,30.0,27.0,30.20,NNW,342,0.0,1.0,90,0.00,,,0.00,,2013-05-14 11:32:00,
2013-05-14 07:43:00,31.0,28.0,30.20,NNW,342,0.0,0.0,90,0.00,,,0.00,,2013-05-14 11:43:00,
2013-05-14 07:53:00,31.0,28.0,30.20,NNW,342,0.0,0.0,90,0.00,,,0.00,,2013-05-14 11:53:00,
2013-05-14 08:03:00,31.0,29.0,30.21,NNW,342,0.0,0.0,91,0.00,,,0.00,,2013-05-14 12:03:00,
2013-05-14 08:12:00,31.0,29.0,30.21,NNW,342,0.0,0.0,91,0.00,,,0.00,,2013-05-14 12:12:00,
2013-05-14 08:21:00,32.0,30.0,30.21,NNW,342,0.0,0.0,92,0.00,,,0.00,,2013-05-14 12:21:00,
2013-05-14 08:32:00,33.0,31.0,30.22,NNW,342,0.0,0.0,92,0.00,,,0.00,,2013-05-14 12:32:00,
2013-05-14 08:42:00,34.0,32.0,30.21,NNW,342,0.0,0.0,92,0.00,,,0.00,,2013-05-14 12:42:00,
2013-05-14 08:52:00,34.0,32.0,30.21,NNW,342,0.0,0.0,92,0.00,,,0.00,,2013-05-14 12:52:00,
2013-05-14 09:01:00,36.0,34.0,30.20,NNW,342,0.0,1.0,93,0.00,,,0.00,,2013-05-14 13:01:00,
2013-05-14 09:22:00,38.0,36.0,30.19,NNW,342,0.0,2.0,93,0.00,,,0.00,,2013-05-14 13:22:00,
2013-05-14 09:32:00,42.0,38.0,30.18,NNW,342,1.0,2.0,87,0.00,,,0.00,,2013-05-14 13:32:00,
2013-05-14 10:01:00,50.0,35.0,30.15,North,356,2.0,7.0,57,0.00,,,0.00,,2013-05-14 14:01:00,
2013-05-14 10:11:00,53.0,34.0,30.14,North,354,2.0,7.0,49,0.00,,,0.00,,2013-05-14 14:11:00,
2013-05-14 10:22:00,53.0,34.0,30.14,North,354,2.0,7.0,49,0.00,,,0.00,,2013-05-14 14:22:00,
2013-05-14 10:32:00,55.0,34.0,30.14,NNW,344,3.0,12.0,45,0.00,,,0.00,,2013-05-14 14:32:00,
2013-05-14 10:42:00,56.0,32.0,30.14,North,355,6.0,13.0,40,0.00,,,0.00,,2013-05-14 14:42:00,
2013-05-14 10:52:00,56.0,32.0,30.14,North,355,6.0,13.0,40,0.00,,,0.00,,2013-05-14 14:52:00,
2013-05-14 11:01:00,57.0,32.0,30.14,North,355,3.0,13.0,38,0.00,,,0.00,,2013-05-14 15:01:00,
2013-05-14 11:12:00,57.0,32.0,30.14,North,355,3.0,13.0,38,0.00,,,0.00,,2013-05-14 15:12:00,
2013-05-14 11:22:00,58.0,30.0,30.14,NNW,345,5.0,13.0,34,0.00,,,0.00,,2013-05-14 15:22:00,
2013-05-14 11:33:00,59.0,32.0,30.14,North,355,3.0,12.0,36,0.00,,,0.00,,2013-05-14 15:33:00,
2013-05-14 11:43:00,60.0,32.0,30.14,NNW,341,7.0,13.0,35,0.00,,,0.00,,2013-05-14 15:43:00,
2013-05-14 11:53:00,60.0,32.0,30.14,NNW,341,7.0,13.0,35,0.00,,,0.00,,2013-05-14 15:53:00,
2013-05-14 12:02:00,60.0,32.0,30.14,North,5,3.0,15.0,35,0.00,,,0.00,,2013-05-14 16:02:00,
2013-05-14 12:12:00,60.0,32.0,30.14,North,5,3.0,15.0,35,0.00,,,0.00,,2013-05-14 16:12:00,
2013-05-14 12:23:00,61.0,30.0,30.12,NNE,16,5.0,12.0,31,0.00,,,0.00,,2013-05-14 16:23:00,
2013-05-14 12:33:00,62.0,31.0,30.12,West,267,3.0,9.0,31,0.00,,,0.00,,2013-05-14 16:33:00,
2013-05-14 12:43:00,62.0,31.0,30.12,West,267,3.0,9.0,31,0.00,,,0.00,,2013-05-14 16:43:00,
2013-05-14 12:54:00,63.0,35.0,30.13,WNW,295,6.0,12.0,35,0.00,,,0.00,,2013-05-14 16:54:00,
2013-05-14 13:03:00,63.0,38.0,30.11,SSE,157,3.0,15.0,39,0.00,,,0.00,,2013-05-14 17:03:00,
2013-05-14 13:13:00,63.0,38.0,30.11,SSE,157,3.0,15.0,39,0.00,,,0.00,,2013-05-14 17:13:00,
2013-05-14 13:24:00,64.0,37.0,30.10,NNE,23,9.0,16.0,37,0.00,,,0.00,,2013-05-14 17:24:00,
2013-05-14 13:33:00,65.0,40.0,30.10,NNW,342,4.0,15.0,40,0.00,,,0.00,,2013-05-14 17:33:00,
2013-05-14 13:43:00,65.0,40.0,30.10,NNW,342,4.0,15.0,40,0.00,,,0.00,,2013-05-14 17:43:00,
2013-05-14 13:52:00,65.0,37.0,30.09,West,277,3.0,18.0,36,0.00,,,0.00,,2013-05-14 17:52:00,
2013-05-14 14:02:00,65.0,41.0,30.09,North,0,5.0,15.0,41,0.00,,,0.00,,2013-05-14 18:02:00,
2013-05-14 14:12:00,65.0,41.0,30.09,North,0,5.0,15.0,41,0.00,,,0.00,,2013-05-14 18:12:00,
2013-05-14 14:22:00,66.0,40.0,30.08,North,350,3.0,12.0,39,0.00,,,0.00,,2013-05-14 18:22:00,
2013-05-14 14:32:00,67.0,40.0,30.08,North,349,3.0,12.0,37,0.00,,,0.00,,2013-05-14 18:32:00,
2013-05-14 14:42:00,67.0,40.0,30.08,North,349,3.0,12.0,37,0.00,,,0.00,,2013-05-14 18:42:00,
2013-05-14 14:52:00,68.0,40.0,30.07,SW,216,3.0,12.0,36,0.00,,,0.00,,2013-05-14 18:52:00,
2013-05-14 15:01:00,69.0,43.0,30.06,NW,324,2.0,7.0,39,0.00,,,0.00,,2013-05-14 19:01:00,
2013-05-14 15:12:00,69.0,43.0,30.06,NW,324,2.0,7.0,39,0.00,,,0.00,,2013-05-14 19:12:00,
2013-05-14 15:22:00,69.0,42.0,30.05,SW,224,6.0,14.0,38,0.00,,,0.00,,2013-05-14 19:22:00,
2013-05-14 15:32:00,69.0,39.0,30.04,NNW,328,5.0,14.0,33,0.00,,,0.00,,2013-05-14 19:32:00,
2013-05-14 15:42:00,69.0,39.0,30.04,NNW,328,5.0,14.0,33,0.00,,,0.00,,2013-05-14 19:42:00,
2013-05-14 15:53:00,70.0,43.0,30.03,NNW,347,3.0,14.0,38,0.00,,,0.00,,2013-05-14 19:53:00,
2013-05-14 16:02:00,70.0,42.0,30.02,North,355,8.0,13.0,36,0.00,,,0.00,,2013-05-14 20:02:00,
2013-05-14 16:11:00,70.0,42.0,30.02,North,355,8.0,13.0,36,0.00,,,0.00,,2013-05-14 20:11:00,
2013-05-14 16:23:00,70.0,43.0,30.02,WNW,292,4.0,15.0,37,0.00,,,0.00,,2013-05-14 20:23:00,
2013-05-14 16:33:00,71.0,43.0,30.02,North,355,2.0,9.0,37,0.00,,,0.00,,2013-05-14 20:33:00,
2013-05-14 16:44:00,71.0,40.0,30.02,North,9,3.0,10.0,33,0.00,,,0.00,,2013-05-14 20:44:00,
2013-05-14 16:52:00,71.0,40.0,30.02,North,9,3.0,10.0,33,0.00,,,0.00,,2013-05-14 20:52:00,
2013-05-14 17:03:00,71.0,40.0,30.02,WNW,285,6.0,13.0,32,0.00,,,0.00,,2013-05-14 21:03:00,
2013-05-14 17:12:00,71.0,40.0,30.02,NNW,346,6.0,14.0,32,0.00,,,0.00,,2013-05-14 21:12:00,
2013-05-14 17:23:00,71.0,40.0,30.02,NNW,346,6.0,14.0,32,0.00,,,0.00,,2013-05-14 21:23:00,
2013-05-14 17:33:00,71.0,45.0,30.01,West,268,3.0,15.0,39,0.00,,,0.00,,2013-05-14 21:33:00,
2013-05-14 17:43:00,71.0,43.0,30.02,West,275,5.0,13.0,36,0.00,,,0.00,,2013-05-14 21:43:00,
2013-05-14 17:53:00,71.0,43.0,30.02,West,275,5.0,13.0,36,0.00,,,0.00,,2013-05-14 21:53:00,
2013-05-14 18:03:00,71.0,43.0,30.02,West,269,2.0,9.0,36,0.00,,,0.00,,2013-05-14 22:03:00,
2013-05-14 18:13:00,71.0,43.0,30.02,West,269,2.0,9.0,36,0.00,,,0.00,,2013-05-14 22:13:00,
2013-05-14 18:24:00,72.0,46.0,30.01,North,351,4.0,14.0,39,0.00,,,0.00,,2013-05-14 22:24:00,
2013-05-14 18:34:00,71.0,46.0,30.02,West,276,2.0,18.0,41,0.00,,,0.00,,2013-05-14 22:34:00,
2013-05-14 18:45:00,71.0,46.0,30.02,West,276,2.0,18.0,41,0.00,,,0.00,,2013-05-14 22:45:00,
2013-05-14 18:54:00,70.0,46.0,30.02,North,355,2.0,15.0,42,0.00,,,0.00,,2013-05-14 22:54:00,
2013-05-14 19:03:00,70.0,45.0,30.02,NNE,21,4.0,12.0,41,0.00,,,0.00,,2013-05-14 23:03:00,
2013-05-14 19:12:00,70.0,45.0,30.02,NNE,21,4.0,12.0,41,0.00,,,0.00,,2013-05-14 23:12:00,
2013-05-14 19:22:00,69.0,46.0,30.02,WNW,290,2.0,13.0,43,0.00,,,0.00,,2013-05-14 23:22:00,
2013-05-14 19:32:00,68.0,46.0,30.01,North,355,0.0,5.0,45,0.00,,,0.00,,2013-05-14 23:32:00,
2013-05-14 19:44:00,68.0,46.0,30.01,North,355,0.0,5.0,45,0.00,,,0.00,,2013-05-14 23:44:00,
2013-05-14 19:53:00,68.0,46.0,30.01,NNW,327,0.0,6.0,46,0.00,,,0.00,,2013-05-14 23:53:00,
2013-05-14 20:02:00,67.0,45.0,30.01,SSW,195,2.0,8.0,45,0.00,,,0.00,,2013-05-15 00:02:00,
2013-05-14 20:11:00,67.0,45.0,30.01,SSW,195,2.0,8.0,45,0.00,,,0.00,,2013-05-15 00:11:00,
2013-05-14 20:21:00,65.0,43.0,30.02,South,175,3.0,8.0,45,0.00,,,0.00,,2013-05-15 00:21:00,
2013-05-14 20:32:00,63.0,44.0,30.01,SSW,199,1.0,10.0,49,0.00,,,0.00,,2013-05-15 00:32:00,
2013-05-14 20:42:00,62.0,43.0,30.01,SSW,199,0.0,3.0,49,0.00,,,0.00,,2013-05-15 00:42:00,
2013-05-14 20:52:00,62.0,43.0,30.01,SSW,199,0.0,3.0,49,0.00,,,0.00,,2013-05-15 00:52:00,
2013-05-14 21:01:00,62.0,45.0,30.01,SSE,162,1.0,7.0,54,0.00,,,0.00,,2013-05-15 01:01:00,
2013-05-14 21:11:00,62.0,45.0,30.01,SSE,162,1.0,7.0,54,0.00,,,0.00,,2013-05-15 01:11:00,
2013-05-14 21:22:00,60.0,45.0,30.01,SSE,151,1.0,3.0,57,0.00,,,0.00,,2013-05-15 01:22:00,
2013-05-14 21:32:00,59.0,45.0,29.98,SSE,151,0.0,3.0,59,0.00,,,0.00,,2013-05-15 01:32:00,
2013-05-14 21:42:00,58.0,45.0,29.98,SSE,151,0.0,1.0,61,0.00,,,0.00,,2013-05-15 01:42:00,
2013-05-14 21:52:00,58.0,45.0,29.98,SSE,151,0.0,1.0,61,0.00,,,0.00,,2013-05-15 01:52:00,
2013-05-14 22:02:00,57.0,45.0,29.98,SSE,151,0.0,0.0,63,0.00,,,0.00,,2013-05-15 02:02:00,
2013-05-14 22:11:00,57.0,45.0,29.98,SSE,151,0.0,0.0,63,0.00,,,0.00,,2013-05-15 02:11:00,
2013-05-14 22:22:00,56.0,45.0,29.99,SSE,151,0.0,0.0,66,0.00,,,0.00,,2013-05-15 02:22:00,
2013-05-14 22:32:00,55.0,45.0,29.98,SSE,151,1.0,2.0,68,0.00,,,0.00,,2013-05-15 02:32:00,
2013-05-14 22:42:00,54.0,45.0,29.99,SSE,151,0.0,1.0,71,0.00,,,0.00,,2013-05-15 02:42:00,
2013-05-14 22:52:00,54.0,45.0,29.99,SSE,151,0.0,1.0,71,0.00,,,0.00,,2013-05-15 02:52:00,
2013-05-14 23:01:00,53.0,45.0,30.00,SSE,151,0.0,3.0,74,0.00,,,0.00,,2013-05-15 03:01:00,
2013-05-14 23:22:00,52.0,45.0,30.00,SSE,151,0.0,2.0,76,0.00,,,0.00,,2013-05-15 03:22:00,
2013-05-14 23:33:00,51.0,44.0,29.99,SSE,151,1.0,2.0,78,0.00,,,0.00,,2013-05-15 03:33:00,
2013-05-14 23:44:00,51.0,45.0,29.99,SSE,151,0.0,2.0,79,0.00,,,0.00,,2013-05-15 03:44:00,
2013-05-14 23:54:00,51.0,45.0,29.99,SSE,151,0.0,2.0,79,0.00,,,0.00,,2013-05-15 03:54:00,